Time;durP1;ratioP1;P1;durP2;ratioP2;P2;SDS_P1;SDS_P2;PMS_P1;PMS_P2;Temp;Humidity;BMP_temperature;BMP_pressure;BME280_temperature;BME280_humidity;BME280_pressure;Samples;Min_cycle;Max_cycle;Signal;HPM_P1;HPM_P2
2021/06/12 00:00:13;;;;;;;10.88;8.10;;;;;;;12.46;68.91;97230.70;1846149;77;25656;-84
2021/06/12 00:02:41;;;;;;;10.88;8.73;;;;;;;12.40;69.06;97230.27;1845901;76;25683;-83
2021/06/12 00:05:10;;;;;;;8.45;7.55;;;;;;;12.33;69.16;97222.73;1846301;77;27350;-84
2021/06/12 00:07:37;;;;;;;9.80;7.67;;;;;;;12.35;69.23;97223.34;1845765;76;25731;-83
2021/06/12 00:10:08;;;;;;;11.08;7.33;;;;;;;12.35;69.14;97220.63;1845672;77;25997;-83
2021/06/12 00:12:35;;;;;;;8.43;7.50;;;;;;;12.36;69.10;97219.58;1845960;76;26341;-82
2021/06/12 00:15:09;;;;;;;11.28;7.60;;;;;;;12.36;69.10;97207.93;1845541;77;25774;-83
2021/06/12 00:17:36;;;;;;;8.38;7.55;;;;;;;12.35;69.04;97220.63;1846129;76;27558;-83
2021/06/12 00:20:08;;;;;;;11.35;7.85;;;;;;;12.33;69.04;97210.56;1861767;76;25674;-83
2021/06/12 00:22:34;;;;;;;8.08;7.25;;;;;;;12.28;69.05;97209.08;1845391;76;25663;-83
2021/06/12 00:25:02;;;;;;;8.20;7.05;;;;;;;12.24;69.12;97209.22;1846217;76;26469;-83
2021/06/12 00:27:28;;;;;;;8.30;7.50;;;;;;;12.22;69.07;97209.44;1846060;77;25732;-83
2021/06/12 00:29:55;;;;;;;8.68;7.22;;;;;;;12.19;69.12;97212.63;1845902;76;28089;-83
2021/06/12 00:32:21;;;;;;;10.05;7.55;;;;;;;12.17;69.20;97211.19;1845938;76;25779;-83
2021/06/12 00:34:48;;;;;;;9.70;7.97;;;;;;;12.15;69.18;97215.47;1846116;76;25659;-83
2021/06/12 00:37:14;;;;;;;12.37;8.03;;;;;;;12.09;69.16;97203.35;1846206;77;25894;-83
2021/06/12 00:39:41;;;;;;;8.78;7.87;;;;;;;12.08;69.22;97208.46;1846198;77;25621;-83
2021/06/12 00:42:08;;;;;;;9.63;7.10;;;;;;;12.03;69.32;97215.09;1846017;76;27513;-83
2021/06/12 00:44:35;;;;;;;10.63;7.47;;;;;;;11.99;69.41;97212.00;1846019;77;25704;-83
2021/06/12 00:47:01;;;;;;;9.03;8.00;;;;;;;11.96;69.44;97208.91;1846046;76;25814;-82
2021/06/12 00:49:28;;;;;;;8.80;6.78;;;;;;;11.96;69.46;97208.91;1858487;76;25668;-83
2021/06/12 00:51:54;;;;;;;9.28;7.75;;;;;;;11.92;69.46;97210.43;1846471;76;25209;-82
2021/06/12 00:54:21;;;;;;;9.55;7.25;;;;;;;11.86;69.35;97206.20;1846241;76;27485;-82
2021/06/12 00:56:48;;;;;;;9.00;6.75;;;;;;;11.81;69.37;97206.06;1846065;77;26458;-83
2021/06/12 00:59:14;;;;;;;7.87;7.17;;;;;;;11.77;69.41;97210.26;1843765;76;25739;-83
2021/06/12 01:01:41;;;;;;;9.88;7.50;;;;;;;11.76;69.54;97207.25;1791749;79;26152;-82
2021/06/12 01:04:08;;;;;;;8.10;7.30;;;;;;;11.69;69.49;97205.12;1851397;76;25672;-82
2021/06/12 01:06:35;;;;;;;9.48;7.33;;;;;;;11.68;69.52;97208.05;1845085;76;28416;-82
2021/06/12 01:09:01;;;;;;;8.15;7.33;;;;;;;11.63;69.51;97207.87;1850927;76;25691;-82
2021/06/12 01:11:28;;;;;;;7.62;6.87;;;;;;;11.60;69.56;97205.60;1831199;77;25614;-82
2021/06/12 01:14:17;;;;;;;7.65;6.85;;;;;;;11.57;69.59;97209.60;1855060;75;26354;-82
2021/06/12 01:17:27;;;;;;;7.87;7.10;;;;;;;11.54;69.62;97204.63;1821814;77;25767;-82
2021/06/12 01:20:08;;;;;;;11.33;7.33;;;;;;;11.52;69.68;97209.43;1874476;76;28191;-82
2021/06/12 01:22:49;;;;;;;8.00;7.20;;;;;;;11.48;69.75;97208.20;1874268;76;25787;-82
2021/06/12 01:25:32;;;;;;;11.10;7.05;;;;;;;11.45;69.78;97206.80;1875349;76;25774;-82
2021/06/12 01:28:39;;;;;;;7.22;6.53;;;;;;;11.42;69.72;97198.30;1788632;78;25743;-82
2021/06/12 01:31:07;;;;;;;9.80;7.53;;;;;;;11.37;69.69;97207.58;1817443;78;25781;-82
2021/06/12 01:33:35;;;;;;;8.18;7.10;;;;;;;11.28;69.86;97207.56;1808302;77;28134;-82
2021/06/12 01:36:05;;;;;;;10.58;7.65;;;;;;;11.26;69.96;97204.25;1757266;78;25677;-82
2021/06/12 01:38:43;;;;;;;8.58;7.42;;;;;;;11.24;69.94;97209.03;1817145;78;25813;-82
2021/06/12 01:41:10;;;;;;;7.67;6.12;;;;;;;11.19;69.95;97202.97;1784249;79;25855;-82
2021/06/12 01:43:40;;;;;;;8.00;6.33;;;;;;;11.18;69.87;97207.54;1795375;78;25758;-82
2021/06/12 01:46:11;;;;;;;8.25;6.58;;;;;;;11.11;69.79;97209.97;1795164;78;27312;-82
2021/06/12 01:48:45;;;;;;;7.20;6.42;;;;;;;11.06;69.93;97199.84;1801313;78;25798;-82
2021/06/12 01:51:13;;;;;;;9.45;7.50;;;;;;;11.00;69.91;97203.41;1798669;78;26321;-82
2021/06/12 01:53:42;;;;;;;9.63;7.92;;;;;;;10.90;70.08;97201.71;1812614;78;25769;-82
2021/06/12 01:56:11;;;;;;;8.50;7.58;;;;;;;10.88;70.24;97199.75;1817092;78;25621;-82
2021/06/12 01:58:42;;;;;;;7.92;7.00;;;;;;;10.86;70.30;97198.33;1817141;78;27635;-82
2021/06/12 02:01:16;;;;;;;10.03;7.35;;;;;;;10.84;70.41;97197.20;1817321;78;25751;-82
2021/06/12 02:03:45;;;;;;;9.28;7.15;;;;;;;10.83;70.39;97191.49;1817367;78;25707;-82
2021/06/12 02:06:16;;;;;;;8.45;7.55;;;;;;;10.76;70.41;97206.36;1794568;78;25748;-82
2021/06/12 02:08:44;;;;;;;7.12;6.45;;;;;;;10.72;70.44;97206.52;1814643;78;25779;-82
2021/06/12 02:11:14;;;;;;;8.90;7.22;;;;;;;10.66;70.49;97207.89;1785364;79;28116;-82
2021/06/12 02:13:42;;;;;;;7.17;6.42;;;;;;;10.65;70.56;97201.66;1789918;79;25722;-81
2021/06/12 02:16:09;;;;;;;9.10;7.35;;;;;;;10.60;70.45;97200.67;1787293;79;26282;-82
2021/06/12 02:18:38;;;;;;;9.90;7.72;;;;;;;10.56;70.60;97196.73;1799593;79;25423;-82
2021/06/12 02:21:05;;;;;;;8.88;6.72;;;;;;;10.54;70.69;97198.30;1797821;79;25859;-82
2021/06/12 02:23:33;;;;;;;10.28;7.83;;;;;;;10.52;70.84;97196.85;1786850;79;28262;-81
2021/06/12 02:25:59;;;;;;;11.12;8.00;;;;;;;10.51;70.91;97193.84;1732710;82;26065;-81
2021/06/12 02:28:34;;;;;;;10.13;7.70;;;;;;;10.49;70.94;97192.74;1778106;80;25707;-82
2021/06/12 02:31:07;;;;;;;8.88;7.97;;;;;;;10.52;71.05;97191.45;1748015;80;26028;-81
2021/06/12 02:33:38;;;;;;;9.55;7.67;;;;;;;10.49;71.04;97196.79;1754883;80;26840;-81
2021/06/12 02:36:05;;;;;;;9.55;7.92;;;;;;;10.49;71.21;97201.36;1790125;79;27391;-82
2021/06/12 02:38:32;;;;;;;11.10;8.00;;;;;;;10.32;71.21;97196.45;1784346;79;25739;-82
2021/06/12 02:41:00;;;;;;;8.45;7.65;;;;;;;10.33;71.45;97194.58;1733072;82;25770;-81
2021/06/12 02:43:27;;;;;;;10.45;7.70;;;;;;;10.37;71.51;97193.94;1746750;80;25716;-82
2021/06/12 02:45:54;;;;;;;8.90;8.00;;;;;;;10.38;71.50;97196.95;1742323;81;25724;-81
2021/06/12 02:48:24;;;;;;;9.53;8.48;;;;;;;10.39;71.68;97191.00;1744623;81;27363;-82
2021/06/12 02:50:52;;;;;;;9.78;8.30;;;;;;;10.36;71.72;97196.33;1753946;80;25832;-81
2021/06/12 02:53:22;;;;;;;9.03;8.13;;;;;;;10.38;71.90;97188.86;1749864;80;25267;-81
2021/06/12 02:55:51;;;;;;;12.15;8.43;;;;;;;10.41;71.90;97193.80;1757668;80;26181;-81
2021/06/12 02:58:25;;;;;;;11.68;7.20;;;;;;;10.43;71.81;97192.23;1716695;81;25764;-81
2021/06/12 03:00:53;;;;;;;8.08;7.28;;;;;;;10.45;71.77;97196.38;1742099;80;27367;-81
2021/06/12 03:03:20;;;;;;;8.63;7.72;;;;;;;10.46;71.72;97189.95;1749157;80;25762;-81
2021/06/12 03:05:57;;;;;;;10.23;8.20;;;;;;;10.46;71.70;97188.59;1754494;80;25704;-81
2021/06/12 03:08:31;;;;;;;9.18;8.18;;;;;;;10.49;71.65;97197.31;1748175;80;25746;-81
2021/06/12 03:10:58;;;;;;;9.50;8.50;;;;;;;10.46;71.67;97197.21;1874402;76;25727;-81
2021/06/12 03:13:28;;;;;;;10.28;8.20;;;;;;;10.42;71.69;97200.02;1846072;77;28418;-81
2021/06/12 03:16:00;;;;;;;9.30;7.50;;;;;;;10.42;71.77;97196.80;1845698;77;25613;-81
2021/06/12 03:18:29;;;;;;;10.28;8.85;;;;;;;10.40;71.82;97196.70;1846161;77;25762;-80
2021/06/12 03:20:58;;;;;;;9.48;8.55;;;;;;;10.36;71.87;97197.68;1846167;76;26401;-81
2021/06/12 03:23:28;;;;;;;9.20;7.78;;;;;;;10.37;72.00;97199.34;1846269;76;25708;-81
2021/06/12 03:25:56;;;;;;;10.13;8.43;;;;;;;10.40;72.17;97196.70;1873191;76;27530;-80
2021/06/12 03:28:24;;;;;;;8.78;7.95;;;;;;;10.44;72.28;97201.47;1814594;76;25766;-81
2021/06/12 03:30:52;;;;;;;8.75;7.87;;;;;;;10.49;72.32;97200.01;1845758;76;25700;-81
2021/06/12 03:33:19;;;;;;;10.93;8.88;;;;;;;10.54;72.35;97202.34;1845947;76;25771;-81
2021/06/12 03:35:47;;;;;;;11.83;9.08;;;;;;;10.56;72.40;97202.14;1846239;77;25251;-81
2021/06/12 03:38:15;;;;;;;13.18;9.20;;;;;;;10.59;72.48;97201.71;1846002;77;27444;-81
2021/06/12 03:40:42;;;;;;;9.55;8.55;;;;;;;10.63;72.40;97194.81;1845936;77;25773;-81
2021/06/12 03:43:13;;;;;;;8.60;7.78;;;;;;;10.66;72.30;97201.97;1845658;76;26331;-81
2021/06/12 03:45:42;;;;;;;8.50;7.70;;;;;;;10.66;72.27;97201.97;1836830;77;25681;-81
2021/06/12 03:48:11;;;;;;;11.22;8.55;;;;;;;10.69;72.31;97200.72;1824834;76;25767;-81
2021/06/12 03:50:40;;;;;;;12.00;8.50;;;;;;;10.70;72.35;97199.67;1845963;76;28110;-81
2021/06/12 03:53:08;;;;;;;11.33;9.00;;;;;;;10.70;72.41;97199.16;1846014;77;25676;-81
2021/06/12 03:55:35;;;;;;;10.32;9.30;;;;;;;10.72;72.51;97198.94;1846028;77;25690;-81
2021/06/12 03:58:02;;;;;;;10.00;8.73;;;;;;;10.74;72.55;97196.85;1845905;77;26308;-81
2021/06/12 04:00:30;;;;;;;13.68;9.25;;;;;;;10.78;72.62;97197.53;1846077;77;26426;-80
2021/06/12 04:02:57;;;;;;;12.03;9.53;;;;;;;10.79;72.67;97195.66;1807619;76;28144;-80
2021/06/12 04:05:24;;;;;;;10.63;9.53;;;;;;;10.83;72.79;97199.07;1840403;76;25728;-80
2021/06/12 04:07:51;;;;;;;12.93;9.55;;;;;;;10.88;72.90;97199.75;1846000;76;25724;-80
2021/06/12 04:10:18;;;;;;;11.35;10.05;;;;;;;10.93;72.94;97197.23;1845675;76;25808;-80
2021/06/12 04:12:45;;;;;;;14.90;10.50;;;;;;;10.98;73.02;97194.72;1822101;76;25842;-81
2021/06/12 04:15:12;;;;;;;13.10;10.50;;;;;;;11.06;73.08;97200.36;1845999;76;28225;-80
2021/06/12 04:17:46;;;;;;;10.80;9.48;;;;;;;11.11;73.09;97199.16;1845738;76;25888;-81
2021/06/12 04:20:14;;;;;;;11.22;9.88;;;;;;;11.14;73.11;97199.56;1827110;77;25215;-80
2021/06/12 04:22:41;;;;;;;12.75;10.08;;;;;;;11.19;73.09;97199.73;1832439;77;25744;-81
2021/06/12 04:25:09;;;;;;;15.50;10.95;;;;;;;11.25;73.10;97207.99;1816404;76;25707;-81
2021/06/12 04:27:36;;;;;;;11.28;10.08;;;;;;;11.31;73.10;97204.42;1845947;77;27263;-81
2021/06/12 04:30:04;;;;;;;14.60;10.80;;;;;;;11.35;73.12;97205.66;1845756;77;25733;-81
2021/06/12 04:32:31;;;;;;;12.75;10.20;;;;;;;11.40;73.24;97207.14;1869859;76;25687;-81
2021/06/12 04:34:57;;;;;;;13.18;11.08;;;;;;;11.46;73.28;97203.58;1850481;76;25692;-81
2021/06/12 04:37:24;;;;;;;15.08;10.10;;;;;;;11.51;73.39;97196.95;1846232;76;25666;-81
2021/06/12 04:39:51;;;;;;;12.85;9.93;;;;;;;11.57;73.37;97199.31;1846066;76;27162;-81
2021/06/12 04:42:17;;;;;;;14.33;10.63;;;;;;;11.63;73.53;97199.77;1845982;76;25684;-81
2021/06/12 04:44:44;;;;;;;12.88;9.95;;;;;;;11.70;73.48;97204.59;1846094;76;25755;-81
2021/06/12 04:47:10;;;;;;;11.65;10.45;;;;;;;11.76;73.44;97203.20;1840690;77;25809;-81
2021/06/12 04:49:37;;;;;;;12.13;10.58;;;;;;;11.83;73.55;97201.23;1820514;77;25676;-81
2021/06/12 04:52:04;;;;;;;13.72;11.25;;;;;;;11.89;73.59;97197.65;1846089;76;27435;-81
2021/06/12 04:54:31;;;;;;;11.85;10.63;;;;;;;11.97;73.58;97194.33;1845908;76;25757;-81
2021/06/12 04:56:57;;;;;;;11.97;10.38;;;;;;;12.05;73.81;97194.05;1845721;77;25683;-81
2021/06/12 04:59:24;;;;;;;12.82;11.08;;;;;;;12.11;73.81;97190.43;1845973;77;26298;-81
2021/06/12 05:01:50;;;;;;;15.00;10.93;;;;;;;12.17;73.99;97193.08;1846104;77;25727;-81
2021/06/12 05:04:17;;;;;;;12.28;10.98;;;;;;;12.26;73.96;97192.23;1814442;76;27433;-81
2021/06/12 05:06:44;;;;;;;12.15;10.85;;;;;;;12.36;74.12;97197.10;1845891;76;25756;-81
2021/06/12 05:09:10;;;;;;;13.53;11.15;;;;;;;12.47;74.24;97193.09;1846625;76;25309;-81
2021/06/12 05:11:37;;;;;;;12.30;10.80;;;;;;;12.58;74.23;97194.20;1854633;76;25614;-81
2021/06/12 05:14:04;;;;;;;15.20;11.53;;;;;;;12.72;74.26;97188.08;1831716;77;25766;-81
2021/06/12 05:16:33;;;;;;;11.85;10.25;;;;;;;12.81;74.22;97178.56;1841294;77;27399;-81
2021/06/12 05:18:59;;;;;;;14.20;11.63;;;;;;;12.93;74.09;97180.78;1854497;76;25672;-81
2021/06/12 05:21:27;;;;;;;11.95;10.63;;;;;;;13.02;74.03;97180.77;1854836;76;25829;-81
2021/06/12 05:23:53;;;;;;;11.83;10.50;;;;;;;13.12;74.14;97174.24;1836574;77;25713;-81
2021/06/12 05:26:20;;;;;;;13.68;10.70;;;;;;;13.23;74.14;97177.53;1844808;77;26416;-81
2021/06/12 05:28:47;;;;;;;12.90;11.43;;;;;;;13.34;74.03;97173.18;1836370;77;27567;-81
2021/06/12 05:31:13;;;;;;;12.28;10.78;;;;;;;13.45;74.05;97166.11;1854945;77;25741;-81
2021/06/12 05:33:40;;;;;;;12.50;11.25;;;;;;;13.55;74.12;97173.13;1843052;77;25753;-81
2021/06/12 05:36:07;;;;;;;13.93;11.65;;;;;;;13.68;74.31;97169.65;1843880;77;25671;-81
2021/06/12 05:38:33;;;;;;;12.63;11.20;;;;;;;13.80;74.26;97171.00;1831214;77;25708;-81
2021/06/12 05:41:00;;;;;;;13.80;11.95;;;;;;;13.90;74.04;97163.08;1854854;76;28251;-81
2021/06/12 05:43:27;;;;;;;13.53;11.95;;;;;;;13.98;73.94;97162.73;1848233;77;25218;-81
2021/06/12 05:45:54;;;;;;;13.32;11.57;;;;;;;14.09;73.85;97162.94;1844944;77;25782;-81
2021/06/12 05:48:21;;;;;;;12.00;10.80;;;;;;;14.19;73.75;97156.36;1841696;76;26234;-82
2021/06/12 05:50:47;;;;;;;13.90;11.68;;;;;;;14.29;73.72;97152.48;1855020;76;25606;-82
2021/06/12 05:53:14;;;;;;;15.23;11.33;;;;;;;14.40;73.64;97155.73;1837584;77;28204;-82
2021/06/12 05:55:40;;;;;;;11.43;9.83;;;;;;;14.52;73.50;97154.33;1848918;76;25718;-82
2021/06/12 05:58:07;;;;;;;10.82;9.73;;;;;;;14.63;73.38;97153.45;1854795;77;25795;-82
2021/06/12 06:00:34;;;;;;;13.03;11.03;;;;;;;14.75;73.36;97155.58;1854857;77;26358;-82
2021/06/12 06:03:00;;;;;;;13.72;9.70;;;;;;;14.86;73.27;97152.51;1843551;77;25899;-82
2021/06/12 06:05:27;;;;;;;12.63;10.70;;;;;;;14.99;73.14;97148.13;1821215;77;28318;-82
2021/06/12 06:07:53;;;;;;;13.08;10.00;;;;;;;15.11;73.05;97148.88;1844752;77;25765;-82
2021/06/12 06:10:20;;;;;;;12.50;10.70;;;;;;;15.28;72.90;97147.00;1835898;77;25687;-82
2021/06/12 06:12:47;;;;;;;12.03;9.70;;;;;;;15.44;72.60;97146.18;1845815;76;25678;-82
2021/06/12 06:15:14;;;;;;;12.13;9.18;;;;;;;15.55;72.55;97145.83;1846012;77;25721;-82
2021/06/12 06:17:42;;;;;;;12.37;10.15;;;;;;;15.72;72.56;97152.59;1874716;76;28448;-82
2021/06/12 06:20:11;;;;;;;11.03;9.08;;;;;;;15.85;72.59;97148.16;1827820;77;25782;-82
2021/06/12 06:22:38;;;;;;;14.33;10.25;;;;;;;15.98;72.64;97139.62;1862037;76;25733;-82
2021/06/12 06:25:07;;;;;;;13.13;10.10;;;;;;;16.09;72.46;97141.41;1846033;77;25672;-82
2021/06/12 06:27:34;;;;;;;13.65;9.25;;;;;;;16.20;72.37;97140.45;1846118;77;25682;-82
2021/06/12 06:30:01;;;;;;;9.80;8.75;;;;;;;16.35;72.15;97143.91;1846053;77;28337;-82
2021/06/12 06:32:27;;;;;;;11.95;8.68;;;;;;;16.45;71.61;97139.94;1868991;76;25773;-83
2021/06/12 06:34:54;;;;;;;9.33;8.35;;;;;;;16.58;71.26;97138.72;1850883;76;25879;-82
2021/06/12 06:37:21;;;;;;;12.50;9.05;;;;;;;16.74;71.63;97131.03;1846145;77;25735;-82
2021/06/12 06:39:47;;;;;;;12.03;9.20;;;;;;;16.90;71.36;97127.35;1846081;77;25802;-82
2021/06/12 06:42:14;;;;;;;9.73;8.18;;;;;;;17.07;71.08;97123.69;1846061;76;27517;-83
2021/06/12 06:44:41;;;;;;;8.85;7.95;;;;;;;17.23;70.64;97122.75;1846044;77;25817;-85
2021/06/12 06:47:07;;;;;;;11.05;8.73;;;;;;;17.37;70.21;97121.23;1874740;76;25761;-82
2021/06/12 06:49:35;;;;;;;10.28;7.60;;;;;;;17.49;69.96;97109.59;1827850;77;25779;-82
2021/06/12 06:52:03;;;;;;;10.55;8.80;;;;;;;17.67;69.90;97125.27;1833654;77;25651;-82
2021/06/12 06:54:30;;;;;;;11.05;7.47;;;;;;;17.83;69.91;97118.83;1846122;77;27351;-83
2021/06/12 06:56:56;;;;;;;8.48;7.67;;;;;;;17.95;69.52;97118.91;1846029;77;26124;-82
2021/06/12 06:59:23;;;;;;;11.05;7.87;;;;;;;18.07;69.20;97123.33;1846171;76;25791;-82
2021/06/12 07:01:50;;;;;;;13.25;8.18;;;;;;;18.19;69.33;97123.38;1846119;77;25810;-83
2021/06/12 07:04:17;;;;;;;9.25;7.37;;;;;;;18.31;69.13;97123.98;1874921;76;25718;-83
2021/06/12 07:06:44;;;;;;;8.28;6.83;;;;;;;18.42;68.44;97117.18;1846225;76;27434;-83
2021/06/12 07:09:10;;;;;;;11.18;7.03;;;;;;;18.50;67.81;97120.20;1842661;77;25803;-83
2021/06/12 07:11:37;;;;;;;7.45;6.75;;;;;;;18.64;68.08;97117.82;1818194;77;25731;-82
2021/06/12 07:14:03;;;;;;;7.65;5.87;;;;;;;18.76;67.68;97117.03;1846228;77;26370;-82
2021/06/12 07:16:30;;;;;;;7.72;5.62;;;;;;;18.87;66.71;97118.69;1833015;77;25606;-82
2021/06/12 07:18:57;;;;;;;6.97;5.55;;;;;;;19.00;66.63;97113.23;1852584;76;28198;-83
2021/06/12 07:21:24;;;;;;;7.47;5.55;;;;;;;19.17;65.75;97112.98;1849357;75;25870;-82
2021/06/12 07:23:50;;;;;;;6.45;5.47;;;;;;;19.27;65.21;97107.51;1846247;77;25837;-84
2021/06/12 07:26:17;;;;;;;6.83;5.65;;;;;;;19.37;64.75;97104.22;1846174;76;25659;-83
2021/06/12 07:28:44;;;;;;;6.45;4.70;;;;;;;19.47;64.28;97096.54;1846139;77;25695;-83
2021/06/12 07:31:10;;;;;;;5.60;5.10;;;;;;;19.61;64.38;97100.39;1846141;77;27333;-83
2021/06/12 07:33:37;;;;;;;5.60;4.80;;;;;;;19.80;64.32;97103.93;1846051;77;25942;-83
2021/06/12 07:36:04;;;;;;;7.10;4.72;;;;;;;19.95;63.73;97103.87;1846219;77;25886;-83
2021/06/12 07:38:30;;;;;;;5.80;4.35;;;;;;;20.06;63.00;97096.70;1874723;76;26251;-82
2021/06/12 07:40:57;;;;;;;6.78;4.08;;;;;;;20.20;62.48;97096.94;1846189;76;25239;-83
2021/06/12 07:43:24;;;;;;;5.90;4.00;;;;;;;20.34;61.79;97096.60;1845953;77;27502;-83
2021/06/12 07:45:51;;;;;;;6.75;4.62;;;;;;;20.48;61.16;97090.81;1846009;76;25670;-83
2021/06/12 07:48:18;;;;;;;6.95;3.92;;;;;;;20.64;60.00;97096.22;1846056;77;25685;-83
2021/06/12 07:50:45;;;;;;;12.68;4.08;;;;;;;20.79;59.84;97094.73;1814035;77;25723;-83
2021/06/12 07:53:12;;;;;;;6.55;4.37;;;;;;;20.96;60.03;97084.20;1823818;77;25744;-82
2021/06/12 07:55:38;;;;;;;5.62;3.77;;;;;;;21.22;59.08;97081.30;1846024;76;27462;-82
2021/06/12 07:58:05;;;;;;;5.92;5.33;;;;;;;21.44;58.61;97085.77;1845885;76;25782;-83
2021/06/12 08:00:32;;;;;;;5.03;4.58;;;;;;;21.76;58.46;97087.36;1845036;77;25693;-82
2021/06/12 08:02:59;;;;;;;6.08;4.87;;;;;;;22.03;57.77;97092.33;1815924;77;25657;-82
2021/06/12 08:05:26;;;;;;;6.00;5.00;;;;;;;22.41;57.25;97094.63;1846132;76;25784;-82
2021/06/12 08:07:53;;;;;;;5.08;4.42;;;;;;;22.77;56.42;97098.30;1846021;76;27527;-83
2021/06/12 08:10:19;;;;;;;5.03;4.22;;;;;;;22.88;55.80;97091.53;1868315;76;26439;-84
2021/06/12 08:12:46;;;;;;;7.67;4.37;;;;;;;23.27;55.34;97076.06;1828270;76;26503;-82
2021/06/12 08:15:14;;;;;;;5.30;4.80;;;;;;;23.27;54.57;97063.11;1845918;77;25474;-82
2021/06/12 08:17:40;;;;;;;10.10;3.65;;;;;;;23.26;54.59;97087.63;1846084;76;25711;-83
2021/06/12 08:20:08;;;;;;;7.00;4.10;;;;;;;23.63;54.05;97084.55;1833457;77;27503;-83
2021/06/12 08:22:35;;;;;;;7.67;3.92;;;;;;;24.03;53.85;97085.16;1835533;76;25886;-82
2021/06/12 08:25:02;;;;;;;4.40;3.77;;;;;;;24.52;53.03;97080.88;1822858;77;25807;-85
2021/06/12 08:27:29;;;;;;;5.05;4.05;;;;;;;24.95;52.47;97083.28;1845857;77;26401;-83
2021/06/12 08:29:56;;;;;;;5.17;4.30;;;;;;;25.33;51.51;97083.75;1846041;77;25716;-82
2021/06/12 08:32:22;;;;;;;5.08;3.92;;;;;;;25.68;50.78;97075.15;1845905;76;27495;-82
2021/06/12 08:34:49;;;;;;;5.67;3.70;;;;;;;25.84;50.61;97077.77;1874707;76;25227;-83
2021/06/12 08:37:16;;;;;;;5.15;3.33;;;;;;;26.16;49.70;97079.37;1845912;76;25855;-83
2021/06/12 08:39:43;;;;;;;5.08;3.17;;;;;;;26.52;49.34;97077.80;1844121;76;25597;-83
2021/06/12 08:42:10;;;;;;;3.42;3.12;;;;;;;26.95;49.39;97072.92;1816930;76;25708;-84
2021/06/12 08:44:36;;;;;;;3.10;2.90;;;;;;;27.38;48.13;97076.51;1846102;77;27994;-85
2021/06/12 08:47:04;;;;;;;3.58;3.27;;;;;;;27.48;47.03;97076.17;1846060;76;25746;-82
2021/06/12 08:49:31;;;;;;;7.45;3.10;;;;;;;27.62;46.30;97068.27;1846155;77;25750;-82
2021/06/12 08:51:58;;;;;;;4.62;3.10;;;;;;;27.62;45.19;97073.24;1846151;77;26268;-86
2021/06/12 08:54:26;;;;;;;5.08;2.90;;;;;;;27.36;45.44;97064.94;1846053;77;25775;-85
2021/06/12 08:56:53;;;;;;;3.55;3.22;;;;;;;27.50;45.00;97064.19;1846121;77;28342;-85
2021/06/12 08:59:20;;;;;;;3.60;3.02;;;;;;;27.82;44.92;97065.59;1814232;77;26001;-85
2021/06/12 09:01:48;;;;;;;5.70;2.70;;;;;;;28.33;44.25;97065.19;1846100;77;25775;-85
2021/06/12 09:04:42;;;;;;;2.72;2.40;;;;;;;28.65;43.11;97058.94;1846120;76;26177;-83
2021/06/12 09:07:20;;;;;;;4.53;2.33;;;;;;;28.74;42.90;97053.33;1805851;77;25738;-83
2021/06/12 09:09:48;;;;;;;;;;;;;;;29.15;42.28;97054.52;1781598;79;27347;-87
2021/06/12 09:12:15;;;;;;;3.60;2.75;;;;;;;29.42;41.06;97051.20;1815896;78;26535;-82
2021/06/12 09:14:42;;;;;;;4.42;2.67;;;;;;;29.68;41.72;97048.98;1820615;78;25719;-91
2021/06/12 09:17:08;;;;;;;3.92;2.60;;;;;;;29.85;41.26;97051.31;1820901;78;25687;-86
2021/06/12 09:19:40;;;;;;;4.67;2.55;;;;;;;30.07;40.39;97047.55;1820762;77;25716;-82
2021/06/12 09:22:10;;;;;;;2.33;2.12;;;;;;;30.28;39.74;97041.91;1804186;78;27360;-84
2021/06/12 09:24:42;;;;;;;3.50;2.20;;;;;;;30.49;39.09;97039.57;1814969;78;26752;-82
2021/06/12 09:27:17;;;;;;;;;;;;;;;30.57;38.57;97042.83;1823281;78;25910;-84
2021/06/12 09:29:48;;;;;;;5.28;2.10;;;;;;;30.70;36.56;97037.48;1820795;78;25779;-85
2021/06/12 09:32:22;;;;;;;4.37;1.80;;;;;;;30.82;37.48;97038.84;1820837;78;25714;-81
2021/06/12 09:34:53;;;;;;;5.03;2.05;;;;;;;30.90;37.07;97039.31;1820700;78;28257;-81
2021/06/12 09:37:28;;;;;;;5.37;2.45;;;;;;;31.01;36.65;97028.48;1820716;77;26100;-85
2021/06/12 09:40:14;;;;;;;2.37;2.00;;;;;;;30.84;36.32;97033.74;1820681;78;26443;-83
2021/06/12 09:42:50;;;;;;;2.85;1.72;;;;;;;30.84;35.67;97028.17;1855055;77;26267;-85
2021/06/12 09:45:30;;;;;;;1.40;1.30;;;;;;;30.86;35.59;97026.42;1855087;77;25885;-82
2021/06/12 09:48:18;;;;;;;2.27;1.42;;;;;;;30.91;35.22;97017.25;1839964;77;27466;-85
2021/06/12 09:50:47;;;;;;;4.33;1.80;;;;;;;30.90;34.94;97018.42;1853579;76;25272;-81
2021/06/12 09:53:20;;;;;;;2.55;1.90;;;;;;;30.95;35.08;97017.34;1854908;77;25708;-81
2021/06/12 09:55:48;;;;;;;4.25;1.87;;;;;;;31.00;34.63;97016.53;1881956;75;25781;-80
2021/06/12 09:58:15;;;;;;;2.62;1.82;;;;;;;31.04;34.96;97014.63;1854956;77;25775;-82
2021/06/12 10:00:46;;;;;;;4.83;2.17;;;;;;;31.03;34.60;97010.83;1855150;77;27529;-80
2021/06/12 10:03:31;;;;;;;4.72;1.92;;;;;;;30.90;34.28;97007.27;1855077;76;25667;-83
2021/06/12 10:06:21;;;;;;;4.78;2.00;;;;;;;30.59;34.11;97007.09;1848927;75;36796;-82
2021/06/12 10:08:51;;;;;;;3.83;1.90;;;;;;;30.00;34.14;97001.98;1854679;76;25759;-85
2021/06/12 10:11:23;;;;;;;3.40;2.20;;;;;;;29.00;34.68;97005.36;1854760;76;25782;-83
2021/06/12 10:13:49;;;;;;;4.17;2.33;;;;;;;28.60;35.62;97008.36;1854829;77;27398;-82
2021/06/12 10:16:16;;;;;;;3.37;2.12;;;;;;;28.65;35.96;97002.59;1881747;75;26402;-85
2021/06/12 10:18:45;;;;;;;2.58;1.92;;;;;;;28.78;36.35;96997.37;1855005;77;25748;-81
2021/06/12 10:21:14;;;;;;;2.17;1.85;;;;;;;28.88;36.61;96996.15;1854547;77;25738;-84
2021/06/12 10:23:44;;;;;;;2.40;2.20;;;;;;;29.02;36.30;96993.91;1855100;77;25735;-85
2021/06/12 10:26:14;;;;;;;6.40;2.10;;;;;;;28.84;35.87;96993.84;1854974;76;28021;-84
2021/06/12 10:28:41;;;;;;;2.92;2.30;;;;;;;28.40;35.48;96988.31;1840997;77;25660;-80
2021/06/12 10:31:13;;;;;;;3.60;2.25;;;;;;;28.26;35.56;96987.17;1845565;76;25844;-83
2021/06/12 10:33:43;;;;;;;2.85;1.65;;;;;;;28.12;35.89;96981.86;1855045;76;34738;-81
2021/06/12 10:36:26;;;;;;;3.77;1.87;;;;;;;28.16;36.15;96977.81;1854256;76;25665;-86
2021/06/12 10:38:54;;;;;;;2.10;2.00;;;;;;;28.10;36.72;96971.66;1854053;77;28312;-80
2021/06/12 10:41:33;;;;;;;2.00;1.90;;;;;;;27.80;36.64;96971.39;1854889;76;25791;-81
2021/06/12 10:44:05;;;;;;;2.12;2.00;;;;;;;27.72;36.58;96966.70;1854615;76;25700;-81
2021/06/12 10:46:39;;;;;;;2.33;2.12;;;;;;;27.54;36.39;96969.50;1854989;77;26264;-83
2021/06/12 10:49:06;;;;;;;3.60;2.25;;;;;;;27.47;36.82;96963.66;1828396;77;25703;-84
2021/06/12 10:51:39;;;;;;;4.53;2.50;;;;;;;27.57;36.81;96950.04;1837357;77;27579;-86
2021/06/12 10:54:20;;;;;;;19.02;3.00;;;;;;;27.54;37.41;96958.41;1850565;77;25743;-84
2021/06/12 10:56:57;;;;;;;6.53;2.40;;;;;;;27.35;37.20;96958.00;1841480;77;25254;-87
2021/06/12 10:59:44;;;;;;;5.35;2.10;;;;;;;27.30;37.66;96958.73;1831236;77;26186;-87
2021/06/12 11:02:28;;;;;;;2.30;2.10;;;;;;;27.10;37.74;96953.32;1856955;76;25274;-84
2021/06/12 11:05:06;;;;;;;5.45;2.72;;;;;;;26.95;37.29;96954.64;1853961;76;27512;-87
2021/06/12 11:07:38;;;;;;;2.42;2.22;;;;;;;26.89;37.35;96950.40;1836879;75;25833;-82
2021/06/12 11:10:19;;;;;;;2.65;2.20;;;;;;;26.95;37.43;96935.26;1847543;76;26448;-84
2021/06/12 11:12:51;;;;;;;2.45;1.85;;;;;;;27.02;38.41;96933.39;1839255;76;25830;-88
2021/06/12 11:15:27;;;;;;;2.33;2.12;;;;;;;27.10;38.05;96931.98;1843375;76;25720;-84
2021/06/12 11:18:25;;;;;;;2.42;2.10;;;;;;;27.20;37.63;96920.54;1782332;79;27385;-84
2021/06/12 11:21:03;;;;;;;2.30;2.08;;;;;;;27.42;37.36;96922.83;1776375;78;25666;-83
2021/06/12 11:23:49;;;;;;;4.90;2.27;;;;;;;27.60;37.25;96928.59;1858209;76;26350;-85
2021/06/12 11:26:16;;;;;;;4.15;1.98;;;;;;;27.39;36.95;96919.36;1849370;76;25659;-83
2021/06/12 11:28:45;;;;;;;2.20;2.00;;;;;;;27.50;36.70;96916.45;1827918;75;25819;-82
2021/06/12 11:31:30;;;;;;;2.35;2.10;;;;;;;27.56;37.48;96917.34;1827555;76;29147;-82
2021/06/12 11:34:24;;;;;;;2.20;2.00;;;;;;;27.57;37.16;96925.91;1841319;76;25682;-82
2021/06/12 11:37:12;;;;;;;2.95;1.90;;;;;;;27.54;37.01;96920.98;1844871;76;25649;-83
2021/06/12 11:39:54;;;;;;;2.00;1.90;;;;;;;27.52;36.98;96921.91;1859868;76;25638;-83